Time;durP1;ratioP1;P1;durP2;ratioP2;P2;SDS_P1;SDS_P2;PMS_P1;PMS_P2;Temp;Humidity;BMP_temperature;BMP_pressure;BME280_temperature;BME280_humidity;BME280_pressure;Samples;Min_cycle;Max_cycle;Signal;HPM_P1;HPM_P2
2023/10/27 00:00:31;;;;;;;1.55;0.98;;;8.90;99.90;;;;;;4977876;28;20035;-70
2023/10/27 00:02:57;;;;;;;0.95;0.65;;;8.90;99.90;;;;;;4979632;28;20030;-69
2023/10/27 00:05:22;;;;;;;0.93;0.60;;;8.90;99.90;;;;;;4980970;28;20037;-70
2023/10/27 00:07:48;;;;;;;1.52;0.70;;;8.90;99.90;;;;;;4984970;28;20396;-73
2023/10/27 00:10:13;;;;;;;1.25;1.00;;;8.90;99.90;;;;;;4983754;28;20038;-69
2023/10/27 00:12:39;;;;;;;1.10;0.70;;;8.90;99.90;;;;;;4978726;28;20023;-71
2023/10/27 00:15:06;;;;;;;1.42;0.77;;;8.90;99.90;;;;;;4982384;28;20042;-70
2023/10/27 00:17:31;;;;;;;1.58;0.73;;;8.90;99.90;;;;;;4985663;28;20035;-70
2023/10/27 00:19:57;;;;;;;1.83;0.80;;;8.90;99.90;;;;;;4988489;28;20380;-71
2023/10/27 00:22:25;;;;;;;0.90;0.47;;;8.90;99.90;;;;;;4982255;28;20395;-70
2023/10/27 00:24:50;;;;;;;1.08;0.68;;;8.90;99.90;;;;;;4982889;28;20385;-70
2023/10/27 00:27:16;;;;;;;1.27;0.73;;;8.90;99.90;;;;;;4983340;28;20101;-73
2023/10/27 00:29:42;;;;;;;2.35;1.00;;;8.90;99.90;;;;;;4988655;28;20030;-70
2023/10/27 00:32:07;;;;;;;1.30;0.85;;;8.90;99.90;;;;;;4984310;28;20454;-70
2023/10/27 00:34:32;;;;;;;1.30;0.80;;;8.90;99.90;;;;;;4985706;28;20038;-70
2023/10/27 00:36:58;;;;;;;2.13;0.50;;;8.90;99.90;;;;;;4983373;28;20463;-70
2023/10/27 00:39:23;;;;;;;1.70;0.95;;;8.90;99.90;;;;;;4984245;28;20050;-72
2023/10/27 00:41:49;;;;;;;0.95;0.70;;;8.90;99.90;;;;;;4982338;28;20094;-72
2023/10/27 00:44:14;;;;;;;1.15;0.77;;;8.90;99.90;;;;;;4983901;28;20026;-71
2023/10/27 00:46:40;;;;;;;1.20;0.68;;;8.90;99.90;;;;;;4985831;28;20375;-70
2023/10/27 00:49:06;;;;;;;1.02;0.70;;;8.80;99.90;;;;;;4987178;28;20088;-70
2023/10/27 00:51:32;;;;;;;2.10;1.00;;;8.80;99.90;;;;;;4987694;28;20114;-73
2023/10/27 00:53:59;;;;;;;0.82;0.63;;;8.80;99.90;;;;;;4986634;28;20105;-70
2023/10/27 00:56:25;;;;;;;2.63;1.13;;;8.80;99.90;;;;;;4983937;28;20026;-72
2023/10/27 00:58:50;;;;;;;2.05;1.10;;;8.80;99.90;;;;;;4981550;28;20030;-70
2023/10/27 01:01:17;;;;;;;1.75;0.88;;;8.80;99.90;;;;;;4986869;28;20030;-70
2023/10/27 01:03:43;;;;;;;2.13;1.20;;;8.80;99.90;;;;;;4988127;28;20032;-71
2023/10/27 01:06:09;;;;;;;1.80;1.05;;;8.80;99.90;;;;;;4979167;28;20489;-71
2023/10/27 01:08:35;;;;;;;1.70;0.85;;;8.80;99.90;;;;;;4991184;28;20058;-72
2023/10/27 01:11:02;;;;;;;1.77;0.88;;;8.80;99.90;;;;;;4986678;28;20435;-73
2023/10/27 01:13:27;;;;;;;1.35;0.98;;;8.80;99.90;;;;;;4981356;28;20030;-72
2023/10/27 01:15:53;;;;;;;1.67;0.88;;;8.80;99.90;;;;;;4984964;28;20140;-70
2023/10/27 01:18:18;;;;;;;1.67;1.08;;;8.80;99.90;;;;;;4988262;28;20038;-71
2023/10/27 01:20:44;;;;;;;2.63;1.20;;;8.80;99.90;;;;;;4984568;28;20045;-70
2023/10/27 01:23:09;;;;;;;2.22;1.08;;;8.80;99.90;;;;;;4989135;28;20027;-70
2023/10/27 01:25:35;;;;;;;2.47;1.23;;;8.80;99.90;;;;;;4987818;28;20047;-70
2023/10/27 01:28:02;;;;;;;2.92;1.40;;;8.80;99.90;;;;;;4980551;28;20095;-71
2023/10/27 01:30:28;;;;;;;1.20;0.90;;;8.80;99.90;;;;;;4983843;28;20033;-70
2023/10/27 01:32:53;;;;;;;2.78;1.33;;;8.80;99.90;;;;;;4986274;28;20042;-71
2023/10/27 01:35:19;;;;;;;2.22;1.17;;;8.80;99.90;;;;;;4983551;28;20077;-71
2023/10/27 01:37:44;;;;;;;1.80;1.02;;;8.80;99.90;;;;;;4988349;28;20471;-70
2023/10/27 01:40:10;;;;;;;2.05;1.20;;;8.80;99.90;;;;;;4986347;28;20033;-70
2023/10/27 01:42:36;;;;;;;3.03;0.85;;;8.80;99.90;;;;;;4986718;28;20353;-70
2023/10/27 01:45:05;;;;;;;2.20;1.15;;;8.70;99.90;;;;;;4989020;28;20455;-70
2023/10/27 01:47:32;;;;;;;1.70;1.10;;;8.70;99.90;;;;;;4984974;28;20035;-70
2023/10/27 01:49:58;;;;;;;1.98;1.00;;;8.80;99.90;;;;;;4983758;28;20027;-71
2023/10/27 01:52:23;;;;;;;1.63;0.98;;;8.80;99.90;;;;;;4983327;28;20065;-70
2023/10/27 01:54:50;;;;;;;2.00;1.02;;;8.70;99.90;;;;;;4990183;28;20022;-71
2023/10/27 01:57:16;;;;;;;1.58;0.80;;;8.80;99.90;;;;;;4982848;28;20069;-70
2023/10/27 01:59:41;;;;;;;1.88;1.08;;;8.80;99.90;;;;;;4988536;28;20034;-70
2023/10/27 02:02:07;;;;;;;1.60;0.85;;;8.80;99.90;;;;;;4983758;28;20040;-70
2023/10/27 02:04:36;;;;;;;2.10;1.02;;;8.80;99.90;;;;;;4986136;28;20510;-74
2023/10/27 02:07:02;;;;;;;1.85;0.90;;;8.80;99.90;;;;;;4985772;28;20034;-71
2023/10/27 02:09:30;;;;;;;1.67;0.85;;;8.70;99.90;;;;;;4984219;28;20368;-74
2023/10/27 02:11:55;;;;;;;2.92;1.17;;;8.80;99.90;;;;;;4996730;28;20073;-71
2023/10/27 02:14:21;;;;;;;1.67;0.80;;;8.70;99.90;;;;;;4986316;28;20037;-71
2023/10/27 02:16:46;;;;;;;2.17;1.02;;;8.70;99.90;;;;;;4985315;28;20041;-70
2023/10/27 02:19:13;;;;;;;1.38;0.80;;;8.80;99.90;;;;;;4986702;28;20400;-70
2023/10/27 02:21:39;;;;;;;1.80;0.80;;;8.80;99.90;;;;;;4985170;28;20031;-71
2023/10/27 02:24:04;;;;;;;1.38;0.88;;;8.70;99.90;;;;;;4981858;28;20113;-71
2023/10/27 02:26:30;;;;;;;1.20;0.65;;;8.70;99.90;;;;;;4984887;28;20464;-70
2023/10/27 02:28:56;;;;;;;1.13;0.60;;;8.70;99.90;;;;;;4984262;28;20375;-70
2023/10/27 02:31:21;;;;;;;1.17;0.70;;;8.70;99.90;;;;;;4982086;28;20041;-70
2023/10/27 02:33:47;;;;;;;1.88;0.77;;;8.60;99.90;;;;;;4990198;28;20085;-70
2023/10/27 02:36:12;;;;;;;0.90;0.68;;;8.60;99.90;;;;;;4981678;28;20054;-71
2023/10/27 02:38:38;;;;;;;1.27;0.80;;;8.70;99.90;;;;;;4985370;28;20549;-71
2023/10/27 02:41:08;;;;;;;1.92;1.00;;;8.70;99.90;;;;;;4984946;28;20045;-70
2023/10/27 02:43:34;;;;;;;1.98;1.00;;;8.70;99.90;;;;;;4974809;28;20031;-71
2023/10/27 02:46:02;;;;;;;1.27;0.80;;;8.70;99.90;;;;;;4987189;28;20035;-70
2023/10/27 02:48:28;;;;;;;1.77;0.93;;;8.60;99.90;;;;;;4984326;28;20027;-71
2023/10/27 02:50:54;;;;;;;1.35;0.75;;;8.60;99.90;;;;;;4986642;28;20050;-70
2023/10/27 02:53:19;;;;;;;1.58;0.70;;;8.70;99.90;;;;;;4988083;28;20068;-73
2023/10/27 02:55:45;;;;;;;2.25;0.95;;;8.60;99.90;;;;;;4984474;28;20483;-70
2023/10/27 02:58:11;;;;;;;1.33;0.90;;;8.70;99.90;;;;;;4983910;28;20038;-70
2023/10/27 03:00:41;;;;;;;1.52;0.82;;;8.70;99.90;;;;;;4979715;28;20034;-71
2023/10/27 03:03:06;;;;;;;1.55;0.70;;;8.60;99.90;;;;;;4983181;28;20038;-70
2023/10/27 03:05:32;;;;;;;1.10;0.55;;;8.60;99.90;;;;;;4982814;28;20096;-70
2023/10/27 03:07:57;;;;;;;1.77;1.10;;;8.60;99.90;;;;;;4986599;28;20523;-74
2023/10/27 03:10:23;;;;;;;1.48;0.80;;;8.60;99.90;;;;;;4977792;28;20391;-71
2023/10/27 03:12:48;;;;;;;1.77;0.75;;;8.60;99.90;;;;;;4983397;28;20034;-70
2023/10/27 03:15:14;;;;;;;1.15;0.70;;;8.60;99.90;;;;;;4983777;28;20463;-71
2023/10/27 03:17:40;;;;;;;1.13;0.63;;;8.60;99.90;;;;;;4984281;28;21412;-70
2023/10/27 03:20:06;;;;;;;1.25;0.60;;;8.60;99.90;;;;;;4986808;28;20030;-70
2023/10/27 03:22:32;;;;;;;1.60;0.80;;;8.60;99.90;;;;;;4982955;28;20035;-70
2023/10/27 03:24:58;;;;;;;1.85;0.60;;;8.60;99.90;;;;;;4986318;28;20046;-71
2023/10/27 03:27:24;;;;;;;2.45;0.80;;;8.60;99.90;;;;;;4980688;28;20042;-70
2023/10/27 03:29:51;;;;;;;1.33;0.73;;;8.60;99.90;;;;;;4983526;28;20047;-70
2023/10/27 03:32:16;;;;;;;1.88;0.70;;;8.60;99.90;;;;;;4985575;28;20514;-70
2023/10/27 03:34:46;;;;;;;1.52;0.88;;;8.60;99.90;;;;;;4983815;28;20764;-70
2023/10/27 03:37:12;;;;;;;1.10;0.75;;;8.60;99.90;;;;;;4982235;28;20034;-72
2023/10/27 03:39:39;;;;;;;1.00;0.45;;;8.60;99.90;;;;;;4983002;28;20088;-70
2023/10/27 03:42:07;;;;;;;1.27;0.70;;;8.60;99.90;;;;;;4981058;28;20396;-70
2023/10/27 03:44:32;;;;;;;1.25;0.68;;;8.50;99.90;;;;;;4984740;28;20031;-70
2023/10/27 03:46:58;;;;;;;1.63;0.80;;;8.50;99.90;;;;;;4983645;28;20559;-71
2023/10/27 03:49:23;;;;;;;1.88;0.80;;;8.60;99.90;;;;;;4980113;28;20038;-70
2023/10/27 03:51:49;;;;;;;1.85;0.88;;;8.50;99.90;;;;;;4983967;28;20558;-70
2023/10/27 03:54:14;;;;;;;1.30;0.73;;;8.50;99.90;;;;;;4980996;28;20029;-70
2023/10/27 03:56:40;;;;;;;1.73;0.88;;;8.50;99.90;;;;;;4979480;28;20494;-71
2023/10/27 03:59:05;;;;;;;1.48;0.68;;;8.50;99.90;;;;;;4978076;28;20031;-71
2023/10/27 04:01:32;;;;;;;1.10;0.60;;;8.50;99.90;;;;;;4981490;28;20253;-71
2023/10/27 04:03:57;;;;;;;1.40;0.70;;;8.50;99.90;;;;;;4980205;28;20054;-70
2023/10/27 04:06:23;;;;;;;1.35;0.80;;;8.50;99.90;;;;;;4984697;28;20042;-70
2023/10/27 04:08:48;;;;;;;0.65;0.65;;;8.50;99.90;;;;;;4980410;28;20037;-71
2023/10/27 04:11:14;;;;;;;0.93;0.55;;;8.50;99.90;;;;;;4984873;28;20037;-71
2023/10/27 04:13:39;;;;;;;1.05;0.40;;;8.50;99.90;;;;;;4980441;28;20538;-70
2023/10/27 04:16:05;;;;;;;1.23;0.50;;;8.50;99.90;;;;;;4983481;28;20038;-70
2023/10/27 04:18:31;;;;;;;1.13;0.73;;;8.50;99.90;;;;;;4982929;28;20093;-70
2023/10/27 04:20:56;;;;;;;0.52;0.50;;;8.50;99.90;;;;;;4983395;28;20105;-72
2023/10/27 04:23:22;;;;;;;1.50;0.60;;;8.50;99.90;;;;;;4991335;28;20541;-70
2023/10/27 04:25:48;;;;;;;0.50;0.38;;;8.50;99.90;;;;;;4987583;28;20411;-70
2023/10/27 04:28:14;;;;;;;1.52;0.90;;;8.50;99.90;;;;;;4979035;28;20151;-67
2023/10/27 04:30:40;;;;;;;0.73;0.50;;;8.50;99.90;;;;;;4986943;28;20082;-67
2023/10/27 04:33:05;;;;;;;1.42;0.52;;;8.50;99.90;;;;;;4989616;28;24310;-67
2023/10/27 04:35:31;;;;;;;0.52;0.45;;;8.50;99.90;;;;;;4984624;28;20034;-69
2023/10/27 04:37:58;;;;;;;0.73;0.43;;;8.50;99.90;;;;;;4981761;28;20478;-67
2023/10/27 04:40:25;;;;;;;0.70;0.40;;;8.50;99.90;;;;;;4987208;28;20034;-71
2023/10/27 04:42:51;;;;;;;1.10;0.45;;;8.50;99.90;;;;;;4981889;28;20088;-67
2023/10/27 04:45:16;;;;;;;1.02;0.50;;;8.50;99.90;;;;;;4985381;28;20537;-68
2023/10/27 04:47:43;;;;;;;0.63;0.50;;;8.50;99.90;;;;;;4985305;28;20109;-67
2023/10/27 04:50:09;;;;;;;3.60;0.55;;;8.50;99.90;;;;;;4988752;28;20031;-69
2023/10/27 04:52:34;;;;;;;1.13;0.57;;;8.50;99.90;;;;;;4984507;28;20037;-69
2023/10/27 04:55:00;;;;;;;1.25;0.60;;;8.40;99.90;;;;;;4989907;28;20030;-67
2023/10/27 04:57:25;;;;;;;1.45;0.55;;;8.50;99.90;;;;;;4984185;28;20038;-67
2023/10/27 04:59:51;;;;;;;1.23;0.73;;;8.50;99.90;;;;;;4985952;28;20030;-69
2023/10/27 05:02:16;;;;;;;1.38;0.70;;;8.40;99.90;;;;;;4986947;28;20042;-67
2023/10/27 05:04:42;;;;;;;1.17;0.60;;;8.50;99.90;;;;;;4986364;28;20037;-67
2023/10/27 05:07:07;;;;;;;0.52;0.40;;;8.40;99.90;;;;;;4984484;28;20455;-68
2023/10/27 05:09:33;;;;;;;1.23;0.63;;;8.50;99.90;;;;;;4987774;28;20042;-67
2023/10/27 05:11:58;;;;;;;1.38;0.77;;;8.50;99.90;;;;;;4983811;28;20038;-69
2023/10/27 05:14:24;;;;;;;0.93;0.50;;;8.40;99.90;;;;;;4982755;28;20809;-67
2023/10/27 05:16:50;;;;;;;4.75;0.90;;;8.40;99.90;;;;;;4985465;28;20034;-68
2023/10/27 05:19:15;;;;;;;1.27;0.68;;;8.40;99.90;;;;;;4988407;28;20080;-68
2023/10/27 05:21:41;;;;;;;1.73;0.77;;;8.40;99.90;;;;;;4987205;28;20519;-67
2023/10/27 05:24:06;;;;;;;2.17;0.90;;;8.40;99.90;;;;;;4988956;28;20035;-67
2023/10/27 05:26:32;;;;;;;1.50;0.75;;;8.50;99.90;;;;;;4988503;28;20045;-69
2023/10/27 05:28:59;;;;;;;1.30;0.70;;;8.50;99.90;;;;;;4986739;28;20372;-67
2023/10/27 05:31:24;;;;;;;2.22;1.10;;;8.40;99.90;;;;;;4985888;28;20110;-68
2023/10/27 05:33:50;;;;;;;1.88;1.10;;;8.40;99.90;;;;;;4987186;28;20458;-68
2023/10/27 05:36:15;;;;;;;1.98;0.65;;;8.40;99.90;;;;;;4982413;28;20035;-67
2023/10/27 05:38:41;;;;;;;1.38;0.90;;;8.40;99.90;;;;;;4988188;28;20058;-67
2023/10/27 05:41:06;;;;;;;1.08;0.80;;;8.40;99.90;;;;;;4989137;28;20044;-67
2023/10/27 05:43:31;;;;;;;2.45;1.02;;;8.40;99.90;;;;;;4986343;28;20027;-68
2023/10/27 05:45:57;;;;;;;2.55;0.85;;;8.40;99.90;;;;;;4987286;28;20074;-67
2023/10/27 05:48:22;;;;;;;2.25;1.00;;;8.40;99.90;;;;;;4988109;28;20057;-68
2023/10/27 05:50:48;;;;;;;2.03;1.15;;;8.40;99.90;;;;;;4987325;28;20487;-67
2023/10/27 05:53:15;;;;;;;2.60;1.30;;;8.40;99.90;;;;;;4986020;28;20037;-70
2023/10/27 05:55:41;;;;;;;2.40;0.82;;;8.40;99.90;;;;;;4982435;28;20419;-68
2023/10/27 05:58:07;;;;;;;3.80;1.42;;;8.40;99.90;;;;;;4982790;28;20042;-67
2023/10/27 06:00:32;;;;;;;2.67;1.15;;;8.40;99.90;;;;;;4982906;28;20035;-67
2023/10/27 06:02:58;;;;;;;2.78;1.42;;;8.40;99.90;;;;;;4983251;28;20034;-71
2023/10/27 06:05:24;;;;;;;1.85;1.10;;;8.40;99.90;;;;;;4986100;28;20052;-68
2023/10/27 06:07:50;;;;;;;2.65;1.10;;;8.40;99.90;;;;;;4984098;28;20027;-67
2023/10/27 06:10:15;;;;;;;2.88;1.38;;;8.40;99.90;;;;;;4984446;28;20053;-67
2023/10/27 06:12:41;;;;;;;1.73;0.85;;;8.40;99.90;;;;;;4985092;28;20447;-67
2023/10/27 06:15:07;;;;;;;2.60;1.13;;;8.40;99.90;;;;;;4982486;28;20439;-67
2023/10/27 06:17:33;;;;;;;1.45;0.90;;;8.40;99.90;;;;;;4982940;28;20088;-67
2023/10/27 06:19:59;;;;;;;2.05;1.05;;;8.40;99.90;;;;;;4982141;28;20077;-67
2023/10/27 06:22:25;;;;;;;2.05;0.98;;;8.30;99.90;;;;;;4984237;28;20088;-68
2023/10/27 06:24:50;;;;;;;3.20;1.30;;;8.30;99.90;;;;;;4980079;28;20094;-69
2023/10/27 06:27:15;;;;;;;2.88;1.27;;;8.40;99.90;;;;;;4977049;28;20031;-68
2023/10/27 06:29:41;;;;;;;1.42;0.68;;;8.40;99.90;;;;;;4983220;28;20046;-67
2023/10/27 06:32:06;;;;;;;2.90;1.20;;;8.30;99.90;;;;;;4982466;28;20360;-71
2023/10/27 06:34:32;;;;;;;2.20;1.17;;;8.40;99.90;;;;;;4985508;28;20030;-66
2023/10/27 06:36:58;;;;;;;2.50;1.02;;;8.40;99.90;;;;;;4984190;28;20034;-68
2023/10/27 06:39:24;;;;;;;2.00;1.10;;;8.40;99.90;;;;;;4981952;28;20026;-67
2023/10/27 06:41:50;;;;;;;1.48;0.95;;;8.40;99.90;;;;;;4978402;28;20034;-67
2023/10/27 06:44:15;;;;;;;3.33;1.40;;;8.40;99.90;;;;;;4978907;28;20026;-66
2023/10/27 06:46:41;;;;;;;2.60;1.20;;;8.40;99.90;;;;;;4983898;28;20026;-66
2023/10/27 06:49:06;;;;;;;3.33;1.40;;;8.40;99.90;;;;;;4988929;28;20030;-65
2023/10/27 06:51:32;;;;;;;2.25;1.13;;;8.30;99.90;;;;;;4982125;28;20391;-67
2023/10/27 06:53:57;;;;;;;2.47;0.93;;;8.40;99.90;;;;;;4985895;28;20100;-66
2023/10/27 06:56:23;;;;;;;3.33;1.10;;;8.40;99.90;;;;;;4982323;28;20160;-65
2023/10/27 06:58:48;;;;;;;2.45;1.02;;;8.40;99.90;;;;;;4977609;28;20034;-66
2023/10/27 07:01:15;;;;;;;1.73;0.85;;;8.40;99.90;;;;;;4982628;28;20150;-66
2023/10/27 07:03:40;;;;;;;1.52;0.70;;;8.40;99.90;;;;;;4983397;28;20023;-67
2023/10/27 07:06:06;;;;;;;2.25;1.00;;;8.40;99.90;;;;;;4983908;28;20041;-67
2023/10/27 07:08:31;;;;;;;2.55;1.17;;;8.50;99.90;;;;;;4985218;28;20038;-66
2023/10/27 07:11:00;;;;;;;2.55;1.23;;;8.40;99.90;;;;;;4984762;28;20035;-67
2023/10/27 07:13:27;;;;;;;2.67;1.10;;;8.50;99.90;;;;;;4983270;28;20035;-66
2023/10/27 07:15:53;;;;;;;1.67;1.02;;;8.50;99.90;;;;;;4980695;28;20141;-66
2023/10/27 07:18:19;;;;;;;3.45;0.82;;;8.50;99.90;;;;;;4980051;28;20676;-69
2023/10/27 07:20:44;;;;;;;3.28;1.33;;;8.50;99.90;;;;;;4982666;28;20114;-66
2023/10/27 07:23:10;;;;;;;2.75;1.08;;;8.50;99.90;;;;;;4988280;28;20034;-66
2023/10/27 07:25:35;;;;;;;1.73;0.70;;;8.50;99.90;;;;;;4987733;28;20410;-66
2023/10/27 07:28:01;;;;;;;2.55;1.20;;;8.50;99.90;;;;;;4986929;28;20475;-66
2023/10/27 07:30:27;;;;;;;3.10;1.23;;;8.50;99.90;;;;;;4987004;28;20034;-67
2023/10/27 07:32:53;;;;;;;3.42;1.55;;;8.60;99.90;;;;;;4987147;28;20066;-67
2023/10/27 07:35:18;;;;;;;3.58;1.50;;;8.70;99.90;;;;;;4984048;28;20046;-70
2023/10/27 07:37:44;;;;;;;2.63;1.23;;;8.60;99.90;;;;;;4986631;28;20045;-66
2023/10/27 07:40:10;;;;;;;3.15;1.20;;;8.70;99.90;;;;;;4988681;28;20034;-67
2023/10/27 07:42:35;;;;;;;3.67;1.48;;;8.70;99.90;;;;;;4984898;28;20121;-67
2023/10/27 07:45:00;;;;;;;3.13;1.20;;;8.80;99.90;;;;;;4985510;28;20022;-68
2023/10/27 07:47:26;;;;;;;3.53;1.50;;;8.80;99.90;;;;;;4987848;28;20042;-67
2023/10/27 07:49:52;;;;;;;3.10;1.48;;;8.80;99.90;;;;;;4989115;28;20038;-68
2023/10/27 07:52:18;;;;;;;3.15;1.23;;;8.80;99.90;;;;;;4985449;28;20038;-66
2023/10/27 07:54:43;;;;;;;2.38;1.27;;;8.90;99.90;;;;;;4985497;28;20038;-66
2023/10/27 07:57:09;;;;;;;3.33;1.35;;;8.90;99.90;;;;;;4988166;28;20064;-70
2023/10/27 07:59:34;;;;;;;3.08;1.30;;;9.00;99.90;;;;;;4983436;28;20080;-66
2023/10/27 08:02:00;;;;;;;3.05;1.42;;;9.00;99.90;;;;;;4987079;28;20268;-66
2023/10/27 08:04:26;;;;;;;3.25;1.27;;;9.00;99.90;;;;;;4989068;28;20356;-67
2023/10/27 08:06:52;;;;;;;3.45;1.25;;;8.90;99.80;;;;;;4988635;28;20194;-67
2023/10/27 08:09:20;;;;;;;2.95;1.65;;;8.90;99.90;;;;;;4986334;28;20035;-67
2023/10/27 08:11:48;;;;;;;3.55;1.40;;;9.00;99.90;;;;;;4987090;28;20027;-67
2023/10/27 08:14:13;;;;;;;1.55;0.85;;;9.10;99.90;;;;;;4984707;28;20103;-66
2023/10/27 08:16:39;;;;;;;2.25;1.33;;;9.00;99.90;;;;;;4988759;28;20050;-67
2023/10/27 08:19:04;;;;;;;2.38;1.17;;;9.20;99.90;;;;;;4986600;28;20038;-66
2023/10/27 08:21:30;;;;;;;3.38;1.35;;;9.10;99.70;;;;;;4985691;28;20452;-66
2023/10/27 08:23:55;;;;;;;2.83;1.60;;;9.20;99.90;;;;;;4987268;28;20042;-65
2023/10/27 08:26:21;;;;;;;2.58;1.40;;;9.10;99.70;;;;;;4987656;28;20103;-66
2023/10/27 08:28:46;;;;;;;3.45;1.33;;;8.90;99.40;;;;;;4983590;28;20514;-66
2023/10/27 08:31:12;;;;;;;2.22;1.40;;;8.80;99.30;;;;;;4985945;28;20045;-68
2023/10/27 08:33:39;;;;;;;2.38;1.23;;;8.90;99.40;;;;;;4983280;28;20773;-66
2023/10/27 08:36:05;;;;;;;1.88;1.00;;;8.90;99.40;;;;;;4987033;28;20455;-66
2023/10/27 08:38:32;;;;;;;1.90;1.00;;;8.90;99.50;;;;;;4988537;28;20042;-66
2023/10/27 08:40:58;;;;;;;2.33;1.08;;;8.90;99.40;;;;;;4987897;28;20030;-70
2023/10/27 08:43:24;;;;;;;2.22;1.30;;;8.90;99.40;;;;;;4985786;28;20089;-66
2023/10/27 08:45:51;;;;;;;2.83;1.30;;;8.90;99.40;;;;;;4984384;28;20360;-68
2023/10/27 08:48:17;;;;;;;2.95;1.38;;;8.90;99.50;;;;;;4982284;28;20038;-66
2023/10/27 08:50:42;;;;;;;2.67;1.17;;;8.80;99.40;;;;;;4983638;28;20046;-70
2023/10/27 08:53:12;;;;;;;2.22;1.17;;;8.90;99.60;;;;;;4984161;28;20463;-66
2023/10/27 08:55:38;;;;;;;2.70;1.30;;;8.90;99.50;;;;;;4989722;28;20026;-66
2023/10/27 08:58:04;;;;;;;2.85;1.30;;;8.90;99.60;;;;;;4985538;28;20062;-65
2023/10/27 09:00:30;;;;;;;3.65;1.48;;;8.90;99.40;;;;;;4984461;28;20101;-66
2023/10/27 09:02:55;;;;;;;2.03;1.10;;;8.90;99.50;;;;;;4990089;28;20113;-66
2023/10/27 09:05:23;;;;;;;2.05;1.10;;;8.90;99.50;;;;;;4989063;28;20041;-66
2023/10/27 09:07:49;;;;;;;2.25;1.20;;;8.90;99.60;;;;;;4982117;28;20039;-66
2023/10/27 09:10:17;;;;;;;3.08;1.20;;;8.90;99.50;;;;;;4989970;28;20086;-66
2023/10/27 09:12:44;;;;;;;2.97;1.35;;;8.90;99.50;;;;;;4981598;28;20053;-65
2023/10/27 09:15:12;;;;;;;3.47;1.63;;;8.80;99.40;;;;;;4981759;28;20550;-66
2023/10/27 09:17:57;;;;;;;2.95;1.13;;;8.80;99.30;;;;;;4981598;28;20030;-65
2023/10/27 09:20:25;;;;;;;2.90;1.08;;;8.70;99.20;;;;;;4980278;28;20129;-68
2023/10/27 09:23:00;;;;;;;3.40;1.48;;;8.80;99.40;;;;;;4984247;28;20113;-68
2023/10/27 09:25:34;;;;;;;3.85;1.48;;;8.90;99.60;;;;;;4983325;28;20053;-68
2023/10/27 09:28:05;;;;;;;2.58;1.27;;;8.80;99.50;;;;;;4984773;28;20038;-67
2023/10/27 09:30:38;;;;;;;5.28;1.92;;;8.90;99.60;;;;;;4983318;28;20460;-68
2023/10/27 09:33:28;;;;;;;3.13;1.55;;;8.80;99.40;;;;;;4984264;28;20121;-68
2023/10/27 09:35:54;;;;;;;2.50;1.15;;;8.90;99.60;;;;;;4984435;28;20026;-67
2023/10/27 09:38:22;;;;;;;1.75;1.02;;;8.90;99.60;;;;;;4979576;28;20041;-68
2023/10/27 09:40:48;;;;;;;2.35;1.55;;;8.80;99.50;;;;;;4982453;28;20037;-68
2023/10/27 09:43:18;;;;;;;2.47;1.25;;;8.90;99.40;;;;;;4976588;28;20526;-67
2023/10/27 09:45:53;;;;;;;4.43;1.77;;;9.00;99.60;;;;;;4979878;28;20060;-69
2023/10/27 09:48:27;;;;;;;2.95;1.40;;;9.00;99.60;;;;;;4987716;28;20026;-67
2023/10/27 09:51:16;;;;;;;3.47;1.33;;;9.00;99.50;;;;;;4982828;28;20033;-67
2023/10/27 09:53:44;;;;;;;2.63;1.40;;;9.00;99.50;;;;;;4990371;28;20022;-67
2023/10/27 09:56:11;;;;;;;2.45;1.40;;;8.90;99.30;;;;;;4984459;28;21073;-70
2023/10/27 09:58:38;;;;;;;3.00;1.30;;;8.90;99.30;;;;;;4981118;28;20053;-67
2023/10/27 10:01:04;;;;;;;3.90;1.90;;;9.00;99.40;;;;;;4981673;28;20046;-68
2023/10/27 10:03:30;;;;;;;3.25;1.70;;;9.00;99.30;;;;;;4984815;28;20103;-68
2023/10/27 10:06:21;;;;;;;3.33;1.48;;;8.90;99.20;;;;;;4985290;28;20057;-67
2023/10/27 10:09:09;;;;;;;2.47;1.40;;;8.90;99.20;;;;;;4981791;28;20133;-68
2023/10/27 10:11:49;;;;;;;3.33;1.63;;;9.00;99.30;;;;;;4984463;28;20437;-68
2023/10/27 10:14:37;;;;;;;2.85;1.40;;;9.00;99.30;;;;;;4980926;28;20145;-67
2023/10/27 10:17:04;;;;;;;3.25;1.60;;;9.00;99.40;;;;;;4982579;28;20030;-65
2023/10/27 10:19:49;;;;;;;2.72;1.40;;;9.00;99.20;;;;;;4985042;28;20038;-66
2023/10/27 10:22:40;;;;;;;3.50;1.50;;;9.00;99.30;;;;;;4982717;28;20030;-66
2023/10/27 10:25:24;;;;;;;3.50;1.20;;;9.00;99.10;;;;;;4983236;28;20042;-65
2023/10/27 10:28:08;;;;;;;2.97;1.40;;;9.00;99.20;;;;;;4980660;28;20058;-66
2023/10/27 10:30:38;;;;;;;3.30;1.42;;;9.00;99.30;;;;;;4981982;28;20049;-65
2023/10/27 10:33:28;;;;;;;4.05;1.42;;;9.00;99.40;;;;;;4987028;28;20173;-66
2023/10/27 10:36:14;;;;;;;4.85;1.75;;;9.10;99.50;;;;;;4987369;28;20051;-65
2023/10/27 10:39:06;;;;;;;4.30;1.65;;;9.00;99.30;;;;;;4986733;28;20069;-65
2023/10/27 10:41:43;;;;;;;2.95;1.35;;;9.00;99.40;;;;;;4978654;28;20077;-66
2023/10/27 10:44:15;;;;;;;2.88;1.55;;;9.00;99.50;;;;;;4976617;28;20384;-66
2023/10/27 10:46:43;;;;;;;3.17;1.48;;;9.00;99.30;;;;;;4981628;28;20276;-65
2023/10/27 10:49:09;;;;;;;4.30;1.92;;;9.10;99.40;;;;;;4983190;28;20040;-65
2023/10/27 10:51:39;;;;;;;4.25;1.58;;;9.00;99.30;;;;;;4986109;28;20023;-68
2023/10/27 10:54:14;;;;;;;3.50;1.48;;;9.00;99.20;;;;;;4991296;28;20022;-65
2023/10/27 10:56:40;;;;;;;4.38;1.60;;;9.10;99.20;;;;;;4979778;28;20026;-69
2023/10/27 10:59:05;;;;;;;2.58;1.40;;;9.20;99.40;;;;;;4982467;28;20026;-66
2023/10/27 11:01:31;;;;;;;4.82;1.92;;;9.30;99.40;;;;;;4987313;28;20483;-66
2023/10/27 11:03:57;;;;;;;2.78;1.20;;;9.20;99.20;;;;;;4976846;28;20041;-68
2023/10/27 11:06:25;;;;;;;3.03;1.55;;;9.30;99.40;;;;;;4985795;28;20030;-66
2023/10/27 11:08:51;;;;;;;3.28;1.30;;;9.30;99.30;;;;;;4986598;28;20052;-64
2023/10/27 11:11:18;;;;;;;3.67;1.65;;;9.30;99.10;;;;;;4980165;28;20714;-65
2023/10/27 11:13:44;;;;;;;2.70;1.15;;;9.30;99.30;;;;;;4982987;28;20027;-65
2023/10/27 11:16:23;;;;;;;3.28;1.27;;;9.30;99.20;;;;;;4980924;28;20069;-66
2023/10/27 11:18:57;;;;;;;4.28;1.50;;;9.30;99.30;;;;;;4982506;28;20038;-66
2023/10/27 11:21:24;;;;;;;3.25;1.35;;;9.30;99.20;;;;;;4985631;28;20038;-66
2023/10/27 11:23:51;;;;;;;2.20;1.10;;;9.30;99.00;;;;;;4985855;28;20030;-66
2023/10/27 11:26:19;;;;;;;2.75;1.15;;;9.20;99.10;;;;;;4979746;28;20051;-64
2023/10/27 11:28:46;;;;;;;2.78;1.35;;;9.30;99.10;;;;;;4980659;28;20402;-65
2023/10/27 11:31:24;;;;;;;3.03;1.52;;;9.40;99.20;;;;;;4979097;28;20030;-66
2023/10/27 11:33:59;;;;;;;3.25;1.33;;;9.50;99.00;;;;;;4980332;28;20019;-68
2023/10/27 11:36:26;;;;;;;2.38;1.08;;;9.50;99.00;;;;;;4983287;28;20031;-65
2023/10/27 11:38:51;;;;;;;3.78;1.20;;;9.50;98.80;;;;;;4982683;28;20072;-66
2023/10/27 11:41:17;;;;;;;2.15;1.20;;;9.60;99.00;;;;;;4983274;28;20503;-65
2023/10/27 11:43:43;;;;;;;3.03;1.45;;;9.40;98.90;;;;;;4981406;28;20043;-65
2023/10/27 11:46:17;;;;;;;3.90;1.42;;;9.40;98.80;;;;;;4976258;28;20088;-67
2023/10/27 11:48:43;;;;;;;2.42;1.20;;;9.40;99.00;;;;;;4981981;28;20052;-66
2023/10/27 11:51:10;;;;;;;3.30;1.30;;;9.40;98.90;;;;;;4978240;28;20098;-67
2023/10/27 11:53:40;;;;;;;3.55;1.35;;;9.40;99.00;;;;;;4982757;28;20065;-66
2023/10/27 11:56:06;;;;;;;3.28;1.52;;;9.40;99.00;;;;;;4981331;28;20054;-66
2023/10/27 11:58:31;;;;;;;2.88;1.25;;;9.40;99.00;;;;;;4979117;28;20043;-66
2023/10/27 12:00:57;;;;;;;2.40;1.20;;;9.50;99.10;;;;;;4983385;28;20077;-66
2023/10/27 12:03:23;;;;;;;2.05;0.90;;;9.50;99.10;;;;;;4985377;28;20038;-69
2023/10/27 12:05:48;;;;;;;3.90;1.40;;;9.60;99.10;;;;;;4979622;28;20088;-66
2023/10/27 12:08:14;;;;;;;2.38;1.20;;;9.50;99.00;;;;;;4978939;28;20398;-66
2023/10/27 12:10:39;;;;;;;2.33;1.00;;;9.60;99.10;;;;;;4975502;28;20047;-66
2023/10/27 12:13:06;;;;;;;1.70;0.95;;;9.60;99.00;;;;;;4973281;28;20039;-67
2023/10/27 12:15:36;;;;;;;1.48;0.82;;;9.30;98.60;;;;;;4980313;28;20026;-66
2023/10/27 12:18:08;;;;;;;1.73;0.98;;;9.30;98.80;;;;;;4981477;28;20093;-67
2023/10/27 12:20:38;;;;;;;3.67;1.23;;;9.30;98.90;;;;;;4982315;28;20030;-66
2023/10/27 12:23:07;;;;;;;1.85;0.95;;;9.30;99.00;;;;;;4981381;28;20451;-67
2023/10/27 12:25:33;;;;;;;2.28;1.13;;;9.20;99.00;;;;;;4984927;28;20043;-67
2023/10/27 12:27:59;;;;;;;2.10;1.00;;;9.20;99.00;;;;;;4974443;28;20085;-68
2023/10/27 12:30:24;;;;;;;2.38;1.35;;;9.10;98.90;;;;;;4981653;28;20399;-70
2023/10/27 12:32:50;;;;;;;2.95;1.15;;;9.30;99.20;;;;;;4980701;28;20427;-69
2023/10/27 12:35:16;;;;;;;2.47;1.15;;;9.30;99.10;;;;;;4980478;28;20053;-70
2023/10/27 12:37:44;;;;;;;2.78;1.30;;;9.40;99.30;;;;;;4982537;28;20392;-67
2023/10/27 12:40:12;;;;;;;2.33;1.10;;;9.30;99.20;;;;;;4984258;28;20038;-67
2023/10/27 12:42:38;;;;;;;2.58;1.17;;;9.30;99.30;;;;;;4976722;28;20484;-67
2023/10/27 12:45:05;;;;;;;2.03;1.05;;;9.30;99.40;;;;;;4982631;28;20030;-66
2023/10/27 12:47:30;;;;;;;2.35;1.05;;;9.30;99.30;;;;;;4987448;28;20039;-68
2023/10/27 12:49:56;;;;;;;2.25;1.20;;;9.20;99.20;;;;;;4983629;28;20080;-67
2023/10/27 12:52:22;;;;;;;2.38;0.90;;;9.20;99.20;;;;;;4986668;28;20037;-67
2023/10/27 12:54:47;;;;;;;2.35;1.10;;;9.30;99.40;;;;;;4982430;28;20038;-66
2023/10/27 12:57:12;;;;;;;2.00;0.93;;;9.20;99.30;;;;;;4984091;28;20097;-67